createdAt,value
2023-05-07T00:00:22.691Z,2.13
2023-05-07T00:02:50.234Z,2.30
2023-05-07T00:05:24.698Z,2.00
2023-05-07T00:08:11.729Z,2.08
2023-05-07T00:10:38.943Z,2.38
2023-05-07T00:13:12.754Z,2.40
2023-05-07T00:15:39.805Z,2.40
2023-05-07T00:18:13.693Z,2.53
2023-05-07T00:20:40.881Z,2.85
2023-05-07T00:23:08.070Z,2.30
2023-05-07T00:25:41.670Z,2.58
2023-05-07T00:28:15.729Z,2.50
2023-05-07T00:30:42.763Z,2.30
2023-05-07T00:33:16.715Z,2.55
2023-05-07T00:35:46.961Z,2.95
2023-05-07T00:38:20.694Z,2.67
2023-05-07T00:40:47.911Z,2.63
2023-05-07T00:43:21.708Z,2.67
2023-05-07T00:45:49.226Z,2.70
2023-05-07T00:48:17.271Z,2.65
2023-05-07T00:50:51.713Z,2.90
2023-05-07T00:53:25.731Z,2.47
2023-05-07T00:55:59.702Z,2.60
2023-05-07T00:58:33.730Z,2.78
2023-05-07T01:01:07.766Z,2.75
2023-05-07T01:03:41.698Z,2.58
2023-05-07T01:06:11.202Z,2.92
2023-05-07T01:08:47.701Z,2.50
2023-05-07T01:11:21.679Z,2.50
2023-05-07T01:13:57.712Z,2.65
2023-05-07T01:16:38.759Z,2.55
2023-05-07T01:19:12.700Z,2.72
2023-05-07T01:21:46.742Z,2.67
2023-05-07T01:24:14.534Z,3.10
2023-05-07T01:26:50.747Z,2.55
2023-05-07T01:29:17.765Z,2.67
2023-05-07T01:31:52.810Z,2.78
2023-05-07T01:34:29.730Z,2.53
2023-05-07T01:37:05.728Z,2.85
2023-05-07T01:39:40.723Z,3.15
2023-05-07T01:42:21.740Z,3.17
2023-05-07T01:44:55.785Z,3.33
2023-05-07T01:47:30.754Z,2.80
2023-05-07T01:50:05.725Z,2.45
2023-05-07T01:52:33.017Z,2.83
2023-05-07T01:55:07.732Z,2.60
2023-05-07T01:57:34.987Z,2.85
2023-05-07T02:00:10.868Z,2.50
2023-05-07T02:02:39.672Z,2.30
2023-05-07T02:05:13.769Z,2.88
2023-05-07T02:08:00.690Z,2.40
2023-05-07T02:10:34.699Z,2.30
2023-05-07T02:13:12.053Z,2.65
2023-05-07T02:15:45.783Z,3.00
2023-05-07T02:18:13.035Z,2.83
2023-05-07T02:20:46.742Z,2.60
2023-05-07T02:23:14.736Z,2.55
2023-05-07T02:25:48.744Z,2.20
2023-05-07T02:28:16.550Z,2.38
2023-05-07T02:30:49.748Z,2.60
2023-05-07T02:33:16.760Z,2.95
2023-05-07T02:35:50.720Z,2.50
2023-05-07T02:38:24.766Z,2.58
2023-05-07T02:40:52.025Z,3.00
2023-05-07T02:43:25.740Z,2.80
2023-05-07T02:46:15.793Z,2.80
2023-05-07T02:48:49.766Z,2.60
2023-05-07T02:51:22.319Z,2.50
2023-05-07T02:53:57.740Z,2.95
2023-05-07T02:56:34.739Z,2.53
2023-05-07T02:59:08.785Z,2.88
2023-05-07T03:01:35.992Z,2.50
2023-05-07T03:04:09.810Z,2.63
2023-05-07T03:06:43.739Z,2.40
2023-05-07T03:09:24.785Z,2.33
2023-05-07T03:12:05.771Z,2.50
2023-05-07T03:14:32.748Z,2.38
2023-05-07T03:17:05.772Z,2.50
2023-05-07T03:19:32.856Z,2.33
2023-05-07T03:22:06.735Z,2.22
2023-05-07T03:24:33.870Z,2.97
2023-05-07T03:27:08.757Z,2.88
2023-05-07T03:29:42.757Z,3.40
2023-05-07T03:32:16.754Z,2.70
2023-05-07T03:34:50.710Z,2.50
2023-05-07T03:37:17.810Z,2.97
2023-05-07T03:39:51.745Z,2.97
2023-05-07T03:42:18.841Z,3.35
2023-05-07T03:44:52.744Z,2.70
2023-05-07T03:47:19.804Z,2.90
2023-05-07T03:49:46.813Z,2.63
2023-05-07T03:52:20.728Z,2.53
2023-05-07T03:54:47.845Z,2.80
2023-05-07T03:57:21.751Z,2.75
2023-05-07T03:59:55.753Z,2.60
2023-05-07T04:02:29.802Z,2.63
2023-05-07T04:04:57.720Z,2.70
2023-05-07T04:07:24.768Z,2.40
2023-05-07T04:10:04.777Z,2.60
2023-05-07T04:12:39.904Z,2.25
2023-05-07T04:15:14.771Z,2.58
2023-05-07T04:17:42.663Z,2.40
2023-05-07T04:20:18.746Z,2.75
2023-05-07T04:22:45.890Z,2.92
2023-05-07T04:25:19.792Z,2.50
2023-05-07T04:27:47.154Z,2.20
2023-05-07T04:30:21.784Z,2.42
2023-05-07T04:32:56.759Z,2.40
2023-05-07T04:35:30.779Z,2.60
2023-05-07T04:38:04.794Z,2.50
2023-05-07T04:40:31.900Z,2.53
2023-05-07T04:43:05.740Z,2.75
2023-05-07T04:45:39.782Z,2.35
2023-05-07T04:48:06.954Z,2.30
2023-05-07T04:50:40.751Z,2.45
2023-05-07T04:53:07.899Z,2.10
2023-05-07T04:55:41.796Z,1.95
2023-05-07T04:58:09.722Z,2.13
2023-05-07T05:00:43.805Z,2.17
2023-05-07T05:03:11.079Z,2.10
2023-05-07T05:05:38.419Z,2.60
2023-05-07T05:08:11.762Z,2.20
2023-05-07T05:10:51.804Z,2.50
2023-05-07T05:13:19.091Z,2.10
2023-05-07T05:15:53.841Z,2.75
2023-05-07T05:18:21.558Z,2.97
2023-05-07T05:20:55.834Z,2.60
2023-05-07T05:23:29.784Z,2.45
2023-05-07T05:25:58.861Z,2.20
2023-05-07T05:28:32.781Z,2.13
2023-05-07T05:31:15.870Z,2.15
2023-05-07T05:33:55.821Z,2.08
2023-05-07T05:36:23.531Z,2.10
2023-05-07T05:38:57.785Z,2.10
2023-05-07T05:41:25.170Z,2.40
2023-05-07T05:43:58.787Z,2.35
2023-05-07T05:46:34.539Z,2.20
2023-05-07T05:49:10.784Z,2.30
2023-05-07T05:51:44.780Z,2.30
2023-05-07T05:54:11.792Z,2.20
2023-05-07T05:56:48.396Z,2.10
2023-05-07T05:59:15.615Z,2.20
2023-05-07T06:01:42.822Z,1.98
2023-05-07T06:04:16.820Z,1.58
2023-05-07T06:06:43.796Z,1.85
2023-05-07T06:09:17.813Z,1.80
2023-05-07T06:12:00.351Z,2.22
2023-05-07T06:14:34.784Z,1.95
2023-05-07T06:17:01.949Z,2.30
2023-05-07T06:19:35.789Z,2.15
2023-05-07T06:22:09.759Z,2.25
2023-05-07T06:24:43.777Z,2.10
2023-05-07T06:27:10.829Z,2.63
2023-05-07T06:29:44.818Z,3.20
2023-05-07T06:32:14.299Z,2.95
2023-05-07T06:34:42.071Z,2.97
2023-05-07T06:37:15.772Z,3.50
2023-05-07T06:39:42.868Z,2.80
2023-05-07T06:42:16.798Z,2.88
2023-05-07T06:44:50.919Z,2.33
2023-05-07T06:47:24.832Z,2.60
2023-05-07T06:49:58.813Z,2.15
2023-05-07T06:52:26.061Z,3.20
2023-05-07T06:54:59.819Z,2.35
2023-05-07T06:57:26.929Z,3.28
2023-05-07T07:00:00.804Z,2.40
2023-05-07T07:02:28.049Z,3.55
2023-05-07T07:05:01.882Z,2.80
2023-05-07T07:07:35.807Z,2.55
2023-05-07T07:10:23.841Z,2.63
2023-05-07T07:12:57.871Z,2.40
2023-05-07T07:15:26.278Z,2.38
2023-05-07T07:17:59.824Z,2.70
2023-05-07T07:20:33.836Z,2.75
2023-05-07T07:23:07.889Z,2.50
2023-05-07T07:25:34.953Z,2.33
2023-05-07T07:28:08.814Z,1.98
2023-05-07T07:30:42.803Z,2.70
2023-05-07T07:33:16.900Z,2.38
2023-05-07T07:35:44.025Z,2.70
2023-05-07T07:38:17.845Z,2.45
2023-05-07T07:40:51.842Z,2.63
2023-05-07T07:43:25.874Z,2.50
2023-05-07T07:45:59.809Z,2.17
2023-05-07T07:48:33.786Z,2.97
2023-05-07T07:51:07.849Z,2.33
2023-05-07T07:53:34.873Z,2.70
2023-05-07T07:56:08.927Z,2.20
2023-05-07T07:58:43.797Z,2.30
2023-05-07T08:01:17.822Z,2.50
2023-05-07T08:03:45.155Z,2.55
2023-05-07T08:06:18.797Z,2.65
2023-05-07T08:09:06.831Z,2.50
2023-05-07T08:11:40.863Z,2.60
2023-05-07T08:14:14.921Z,2.72
2023-05-07T08:16:48.932Z,2.53
2023-05-07T08:19:16.161Z,2.45
2023-05-07T08:21:49.824Z,2.45
2023-05-07T08:24:17.102Z,2.60
2023-05-07T08:26:52.840Z,2.88
2023-05-07T08:29:19.882Z,2.53
2023-05-07T08:31:46.932Z,2.47
2023-05-07T08:34:20.848Z,3.47
2023-05-07T08:36:49.524Z,3.10
2023-05-07T08:39:26.815Z,3.40
2023-05-07T08:41:58.400Z,3.63
2023-05-07T08:44:35.858Z,2.30
2023-05-07T08:47:03.882Z,2.55
2023-05-07T08:49:37.871Z,2.85
2023-05-07T08:52:05.118Z,2.80
2023-05-07T08:54:32.855Z,2.60
2023-05-07T08:57:06.918Z,3.47
2023-05-07T08:59:34.026Z,2.58
2023-05-07T09:02:09.827Z,2.33
2023-05-07T09:04:37.190Z,2.47
2023-05-07T09:07:06.618Z,2.30
2023-05-07T09:09:41.862Z,2.88
2023-05-07T09:12:15.843Z,2.65
2023-05-07T09:14:49.872Z,2.60
2023-05-07T09:17:20.026Z,2.83
2023-05-07T09:20:00.867Z,2.45
2023-05-07T09:22:27.897Z,2.45
2023-05-07T09:25:01.863Z,2.40
2023-05-07T09:27:35.902Z,2.30
2023-05-07T09:30:15.883Z,2.35
2023-05-07T09:32:50.020Z,2.50
2023-05-07T09:35:18.831Z,2.55
2023-05-07T09:37:53.858Z,2.67
2023-05-07T09:40:30.108Z,2.28
2023-05-07T09:43:03.900Z,2.30
2023-05-07T09:45:31.200Z,2.45
2023-05-07T09:48:05.944Z,2.25
2023-05-07T09:50:57.848Z,2.20
2023-05-07T09:53:25.887Z,1.92
2023-05-07T09:56:02.350Z,2.33
2023-05-07T09:58:32.481Z,2.25
2023-05-07T10:01:05.948Z,2.22
2023-05-07T10:03:36.597Z,2.42
2023-05-07T10:06:12.876Z,2.50
2023-05-07T10:09:00.979Z,2.80
2023-05-07T10:11:35.957Z,2.45
2023-05-07T10:14:06.990Z,2.63
2023-05-07T10:16:45.907Z,2.80
2023-05-07T10:19:14.098Z,3.15
2023-05-07T10:22:10.922Z,3.60
2023-05-07T10:24:45.864Z,4.38
2023-05-07T10:27:23.868Z,3.85
2023-05-07T10:30:39.171Z,3.80
2023-05-07T10:33:17.158Z,4.05
2023-05-07T10:35:48.736Z,4.20
2023-05-07T10:38:16.376Z,3.78
2023-05-07T10:40:50.875Z,4.38
2023-05-07T10:43:24.996Z,4.57
2023-05-07T10:46:18.901Z,4.90
2023-05-07T10:49:04.849Z,4.75
2023-05-07T10:51:40.061Z,4.68
2023-05-07T10:54:19.913Z,4.30
2023-05-07T10:56:54.926Z,4.18
2023-05-07T10:59:28.914Z,3.80
2023-05-07T11:02:07.043Z,4.30
2023-05-07T11:04:36.121Z,4.40
2023-05-07T11:07:20.888Z,5.25
2023-05-07T11:10:00.913Z,5.22
2023-05-07T11:12:43.982Z,5.38
2023-05-07T11:15:40.864Z,4.72
2023-05-07T11:18:14.895Z,5.07
2023-05-07T11:21:00.016Z,5.22
2023-05-07T11:23:42.885Z,4.85
2023-05-07T11:26:18.907Z,4.97
2023-05-07T11:28:52.890Z,4.82
2023-05-07T11:31:36.099Z,4.40
2023-05-07T11:34:03.718Z,5.03
2023-05-07T11:36:40.869Z,5.35
2023-05-07T11:39:43.880Z,7.70
2023-05-07T11:42:42.125Z,6.05
2023-05-07T11:45:10.695Z,5.25
2023-05-07T11:47:38.055Z,4.70
2023-05-07T11:50:14.949Z,4.38
2023-05-07T11:52:59.990Z,4.10
2023-05-07T11:55:33.924Z,3.60
2023-05-07T11:58:01.010Z,3.38
2023-05-07T12:00:34.957Z,2.65
2023-05-07T12:03:12.999Z,1.77
2023-05-07T12:05:49.918Z,8.68
2023-05-07T12:08:28.939Z,2.65
2023-05-07T12:11:09.943Z,1.90
2023-05-07T12:13:37.386Z,2.10
2023-05-07T12:16:12.946Z,1.90
2023-05-07T12:18:47.980Z,2.13
2023-05-07T12:21:21.873Z,1.70
2023-05-07T12:23:49.159Z,2.00
2023-05-07T12:26:22.888Z,1.77
2023-05-07T12:28:56.904Z,1.63
2023-05-07T12:31:30.976Z,2.00
2023-05-07T12:34:09.947Z,5.43
2023-05-07T12:36:47.966Z,2.33
2023-05-07T12:39:21.960Z,2.22
2023-05-07T12:41:59.831Z,2.45
2023-05-07T12:44:40.958Z,2.50
2023-05-07T12:47:14.946Z,2.47
2023-05-07T12:49:49.936Z,2.88
2023-05-07T12:52:17.029Z,2.70
2023-05-07T12:54:54.078Z,2.85
2023-05-07T12:57:22.067Z,2.72
2023-05-07T12:59:55.947Z,2.88
2023-05-07T13:02:36.022Z,2.72
2023-05-07T13:05:10.309Z,2.92
2023-05-07T13:07:44.890Z,3.53
2023-05-07T13:10:17.960Z,3.22
2023-05-07T13:12:52.330Z,2.78
2023-05-07T13:15:26.966Z,2.78
2023-05-07T13:17:54.199Z,2.83
2023-05-07T13:20:27.971Z,2.65
2023-05-07T13:22:54.976Z,3.33
2023-05-07T13:25:28.938Z,2.78
2023-05-07T13:28:03.041Z,2.67
2023-05-07T13:30:43.937Z,2.88
2023-05-07T13:33:11.167Z,2.80
2023-05-07T13:35:44.967Z,2.63
2023-05-07T13:38:18.947Z,2.22
2023-05-07T13:40:52.975Z,2.90
2023-05-07T13:43:26.921Z,2.60
2023-05-07T13:45:54.053Z,2.60
2023-05-07T13:48:27.969Z,2.60
2023-05-07T13:51:01.951Z,2.70
2023-05-07T13:53:35.905Z,2.63
2023-05-07T13:56:05.712Z,2.50
2023-05-07T13:58:51.992Z,2.80
2023-05-07T14:01:26.081Z,3.00
2023-05-07T14:03:59.972Z,3.38
2023-05-07T14:06:27.483Z,3.03
2023-05-07T14:08:54.572Z,3.00
2023-05-07T14:11:28.920Z,3.38
2023-05-07T14:14:03.942Z,3.13
2023-05-07T14:16:31.191Z,3.10
2023-05-07T14:19:04.926Z,3.60
2023-05-07T14:21:32.564Z,2.85
2023-05-07T14:24:07.912Z,2.60
2023-05-07T14:26:35.886Z,2.63
2023-05-07T14:29:10.000Z,2.67
2023-05-07T14:31:38.156Z,2.58
2023-05-07T14:34:05.515Z,2.47
2023-05-07T14:36:39.966Z,2.20
2023-05-07T14:39:07.415Z,2.40
2023-05-07T14:41:34.486Z,2.30
2023-05-07T14:44:07.951Z,2.53
2023-05-07T14:46:42.048Z,2.47
2023-05-07T14:49:17.546Z,2.20
2023-05-07T14:51:54.968Z,2.55
2023-05-07T14:54:22.006Z,2.35
2023-05-07T14:57:02.943Z,2.35
2023-05-07T14:59:30.254Z,2.35
2023-05-07T15:02:06.900Z,2.10
2023-05-07T15:04:34.881Z,2.20
2023-05-07T15:07:03.860Z,2.00
2023-05-07T15:09:37.979Z,2.33
2023-05-07T15:12:19.002Z,2.40
2023-05-07T15:14:52.966Z,2.10
2023-05-07T15:17:27.012Z,2.30
2023-05-07T15:20:02.238Z,2.20
2023-05-07T15:22:29.332Z,2.10
2023-05-07T15:25:03.981Z,2.10
2023-05-07T15:27:39.969Z,2.00
2023-05-07T15:30:15.035Z,2.38
2023-05-07T15:32:43.262Z,2.28
2023-05-07T15:35:17.951Z,2.10
2023-05-07T15:37:52.257Z,2.08
2023-05-07T15:40:19.705Z,2.10
2023-05-07T15:42:53.956Z,1.85
2023-05-07T15:45:21.127Z,1.70
2023-05-07T15:47:55.054Z,1.88
2023-05-07T15:50:22.165Z,1.73
2023-05-07T15:52:55.971Z,1.52
2023-05-07T15:55:23.090Z,1.83
2023-05-07T15:57:57.011Z,2.00
2023-05-07T16:00:35.003Z,2.00
2023-05-07T16:03:09.119Z,1.73
2023-05-07T16:05:36.394Z,2.50
2023-05-07T16:08:04.301Z,1.85
2023-05-07T16:11:00.086Z,1.80
2023-05-07T16:13:41.975Z,1.95
2023-05-07T16:16:09.100Z,1.70
2023-05-07T16:18:43.960Z,2.10
2023-05-07T16:21:10.965Z,1.80
2023-05-07T16:23:45.004Z,2.15
2023-05-07T16:26:13.832Z,1.95
2023-05-07T16:28:47.999Z,4.15
2023-05-07T16:31:15.006Z,2.10
2023-05-07T16:33:49.019Z,3.42
2023-05-07T16:36:16.031Z,1.75
2023-05-07T16:38:50.010Z,1.98
2023-05-07T16:41:17.052Z,1.63
2023-05-07T16:43:51.031Z,1.85
2023-05-07T16:46:18.192Z,1.70
2023-05-07T16:48:51.994Z,2.67
2023-05-07T16:51:26.174Z,2.22
2023-05-07T16:54:01.031Z,2.20
2023-05-07T16:56:28.309Z,2.10
2023-05-07T16:59:02.011Z,2.05
2023-05-07T17:01:39.062Z,2.20
2023-05-07T17:04:13.198Z,2.47
2023-05-07T17:06:40.457Z,2.38
2023-05-07T17:09:14.229Z,2.33
2023-05-07T17:11:48.126Z,4.55
2023-05-07T17:14:27.988Z,2.63
2023-05-07T17:17:02.024Z,2.50
2023-05-07T17:19:37.140Z,2.85
2023-05-07T17:22:12.096Z,2.92
2023-05-07T17:24:45.994Z,3.30
2023-05-07T17:27:19.220Z,3.72
2023-05-07T17:29:46.469Z,4.15
2023-05-07T17:32:19.972Z,4.05
2023-05-07T17:34:54.012Z,5.10
2023-05-07T17:37:28.001Z,5.00
2023-05-07T17:40:03.115Z,5.72
2023-05-07T17:42:38.982Z,4.95
2023-05-07T17:45:13.034Z,5.68
2023-05-07T17:47:48.051Z,5.03
2023-05-07T17:50:21.975Z,4.97
2023-05-07T17:52:49.172Z,5.22
2023-05-07T17:55:23.015Z,5.00
2023-05-07T17:57:57.014Z,5.35
2023-05-07T18:00:31.034Z,5.88
2023-05-07T18:03:06.141Z,6.13
2023-05-07T18:05:44.019Z,5.55
2023-05-07T18:08:18.067Z,5.82
2023-05-07T18:10:52.018Z,5.35
2023-05-07T18:13:25.805Z,5.90
2023-05-07T18:15:59.105Z,6.20
2023-05-07T18:18:29.150Z,5.93
2023-05-07T18:21:04.141Z,6.22
2023-05-07T18:23:31.229Z,6.50
2023-05-07T18:26:07.081Z,6.50
2023-05-07T18:28:36.761Z,7.85
2023-05-07T18:31:13.026Z,7.00
2023-05-07T18:33:48.032Z,7.82
2023-05-07T18:36:22.009Z,6.63
2023-05-07T18:38:56.003Z,6.40
2023-05-07T18:41:35.109Z,5.80
2023-05-07T18:44:09.062Z,5.55
2023-05-07T18:46:43.037Z,6.10
2023-05-07T18:49:17.045Z,4.93
2023-05-07T18:51:45.140Z,5.88
2023-05-07T18:54:12.280Z,5.30
2023-05-07T18:56:46.007Z,5.20
2023-05-07T18:59:13.067Z,4.88
2023-05-07T19:01:47.134Z,5.22
2023-05-07T19:04:28.111Z,4.95
2023-05-07T19:07:02.045Z,4.80
2023-05-07T19:09:36.128Z,5.00
2023-05-07T19:12:17.019Z,5.03
2023-05-07T19:14:44.835Z,5.40
2023-05-07T19:17:21.446Z,5.28
2023-05-07T19:19:49.237Z,4.68
2023-05-07T19:22:24.061Z,4.72
2023-05-07T19:24:58.297Z,4.80
2023-05-07T19:27:32.011Z,4.55
2023-05-07T19:30:06.018Z,4.70
2023-05-07T19:32:33.097Z,4.88
2023-05-07T19:35:07.000Z,4.60
2023-05-07T19:37:41.018Z,4.20
2023-05-07T19:40:10.269Z,3.80
2023-05-07T19:42:45.451Z,4.00
2023-05-07T19:45:24.106Z,3.85
2023-05-07T19:47:58.025Z,3.83
2023-05-07T19:50:32.055Z,3.60
2023-05-07T19:53:06.010Z,3.63
2023-05-07T19:55:40.059Z,4.20
2023-05-07T19:58:08.792Z,4.25
2023-05-07T20:00:43.465Z,4.22
2023-05-07T20:03:18.358Z,4.50
2023-05-07T20:05:54.084Z,4.72
2023-05-07T20:08:21.336Z,5.78
2023-05-07T20:10:56.004Z,6.38
2023-05-07T20:13:23.200Z,6.10
2023-05-07T20:15:57.046Z,5.70
2023-05-07T20:18:25.124Z,8.18
2023-05-07T20:20:59.070Z,7.50
2023-05-07T20:23:26.843Z,6.35
2023-05-07T20:25:53.897Z,5.53
2023-05-07T20:28:27.025Z,5.05
2023-05-07T20:30:54.622Z,5.05
2023-05-07T20:33:28.104Z,5.07
2023-05-07T20:35:58.890Z,5.15
2023-05-07T20:38:35.020Z,5.72
2023-05-07T20:41:09.954Z,5.50
2023-05-07T20:43:44.068Z,6.47
2023-05-07T20:46:11.139Z,5.95
2023-05-07T20:48:46.060Z,5.60
2023-05-07T20:51:22.102Z,5.25
2023-05-07T20:53:56.056Z,5.22
2023-05-07T20:56:23.223Z,5.35
2023-05-07T20:58:59.050Z,5.38
2023-05-07T21:01:26.095Z,5.03
2023-05-07T21:04:01.094Z,5.72
2023-05-07T21:06:35.069Z,7.60
2023-05-07T21:09:02.428Z,7.47
2023-05-07T21:11:36.097Z,10.13
2023-05-07T21:14:09.673Z,11.07
2023-05-07T21:16:43.093Z,10.52
2023-05-07T21:19:10.884Z,10.55
2023-05-07T21:21:45.087Z,11.95
2023-05-07T21:24:19.070Z,11.50
2023-05-07T21:26:52.086Z,11.52
2023-05-07T21:29:27.116Z,11.82
2023-05-07T21:31:54.689Z,12.63
2023-05-07T21:34:28.099Z,10.82
2023-05-07T21:36:56.832Z,11.35
2023-05-07T21:39:31.092Z,11.20
2023-05-07T21:41:58.245Z,12.13
2023-05-07T21:44:35.313Z,11.88
2023-05-07T21:47:02.355Z,11.00
2023-05-07T21:49:36.140Z,12.90
2023-05-07T21:52:10.054Z,13.55
2023-05-07T21:54:44.088Z,15.23
2023-05-07T21:57:18.070Z,11.05
2023-05-07T21:59:52.036Z,14.82
2023-05-07T22:02:19.083Z,22.05
2023-05-07T22:04:54.090Z,16.27
2023-05-07T22:07:28.054Z,29.98
2023-05-07T22:10:02.076Z,27.25
2023-05-07T22:12:42.214Z,22.25
2023-05-07T22:15:16.112Z,25.35
2023-05-07T22:17:43.240Z,24.73
2023-05-07T22:20:18.071Z,24.60
2023-05-07T22:22:57.066Z,18.17
2023-05-07T22:25:33.085Z,25.35
2023-05-07T22:28:00.425Z,21.70
2023-05-07T22:30:34.128Z,21.88
2023-05-07T22:33:01.604Z,19.90
2023-05-07T22:35:35.105Z,23.52
2023-05-07T22:38:02.193Z,21.63
2023-05-07T22:40:36.074Z,34.83
2023-05-07T22:43:03.139Z,25.05
2023-05-07T22:45:37.117Z,19.30
2023-05-07T22:48:04.537Z,24.20
2023-05-07T22:50:38.156Z,20.08
2023-05-07T22:53:06.799Z,27.17
2023-05-07T22:55:33.850Z,24.95
2023-05-07T22:58:07.083Z,22.67
2023-05-07T23:00:34.213Z,35.45
2023-05-07T23:03:08.228Z,21.25
2023-05-07T23:05:35.415Z,18.52
2023-05-07T23:08:10.178Z,20.67
2023-05-07T23:10:57.096Z,13.90
2023-05-07T23:13:24.440Z,13.25
2023-05-07T23:15:58.107Z,13.05
2023-05-07T23:18:34.109Z,15.77
2023-05-07T23:21:08.140Z,14.30
2023-05-07T23:23:35.822Z,13.07
2023-05-07T23:26:09.095Z,12.57
2023-05-07T23:28:36.176Z,14.32
2023-05-07T23:31:10.115Z,13.88
2023-05-07T23:33:37.884Z,13.88
2023-05-07T23:36:14.159Z,13.38
2023-05-07T23:38:41.282Z,16.77
2023-05-07T23:41:11.159Z,16.85
2023-05-07T23:43:45.092Z,17.45
2023-05-07T23:46:12.163Z,18.10
2023-05-07T23:48:46.099Z,19.00
2023-05-07T23:51:20.118Z,18.48
2023-05-07T23:53:54.150Z,16.52
2023-05-07T23:56:28.072Z,19.75
2023-05-07T23:59:01.145Z,17.85
